createdAt,value
2023-06-11T00:01:28.209Z,21.60
2023-06-11T00:03:55.710Z,21.60
2023-06-11T00:06:24.426Z,21.60
2023-06-11T00:08:55.522Z,21.60
2023-06-11T00:11:23.175Z,21.60
2023-06-11T00:13:50.921Z,21.60
2023-06-11T00:16:18.399Z,21.50
2023-06-11T00:18:46.418Z,21.50
2023-06-11T00:21:15.348Z,21.50
2023-06-11T00:23:42.372Z,21.50
2023-06-11T00:26:09.733Z,21.50
2023-06-11T00:28:36.854Z,21.50
2023-06-11T00:31:07.346Z,21.40
2023-06-11T00:33:34.527Z,21.40
2023-06-11T00:36:01.425Z,21.40
2023-06-11T00:38:29.707Z,21.30
2023-06-11T00:40:56.792Z,21.30
2023-06-11T00:43:25.113Z,21.20
2023-06-11T00:45:52.742Z,21.20
2023-06-11T00:48:21.018Z,21.20
2023-06-11T00:50:52.674Z,21.20
2023-06-11T00:53:20.980Z,21.20
2023-06-11T00:55:48.513Z,21.10
2023-06-11T00:58:18.773Z,21.10
2023-06-11T01:00:50.544Z,21.00
2023-06-11T01:03:22.861Z,21.00
2023-06-11T01:05:54.048Z,21.00
2023-06-11T01:08:22.127Z,21.00
2023-06-11T01:10:50.628Z,20.90
2023-06-11T01:13:17.469Z,20.90
2023-06-11T01:15:44.278Z,20.90
2023-06-11T01:18:20.896Z,20.90
2023-06-11T01:21:13.420Z,20.90
2023-06-11T01:24:08.844Z,20.80
2023-06-11T01:26:54.868Z,20.80
2023-06-11T01:29:23.770Z,20.80
2023-06-11T01:31:51.745Z,20.80
2023-06-11T01:34:18.648Z,20.70
2023-06-11T01:36:45.550Z,20.70
2023-06-11T01:39:13.673Z,20.70
2023-06-11T01:41:40.693Z,20.60
2023-06-11T01:44:07.513Z,20.60
2023-06-11T01:46:34.378Z,20.50
2023-06-11T01:49:01.475Z,20.50
2023-06-11T01:51:28.317Z,20.50
2023-06-11T01:53:56.240Z,20.50
2023-06-11T01:56:23.225Z,20.40
2023-06-11T01:58:50.073Z,20.40
2023-06-11T02:01:16.893Z,20.30
2023-06-11T02:03:43.834Z,20.30
2023-06-11T02:06:10.726Z,20.20
2023-06-11T02:08:37.593Z,20.20
2023-06-11T02:11:05.018Z,20.20
2023-06-11T02:13:32.251Z,20.20
2023-06-11T02:16:00.014Z,20.20
2023-06-11T02:18:26.924Z,20.20
2023-06-11T02:20:53.796Z,20.10
2023-06-11T02:23:20.803Z,20.00
2023-06-11T02:25:47.573Z,20.00
2023-06-11T02:28:14.482Z,20.00
2023-06-11T02:30:41.350Z,20.00
2023-06-11T02:33:08.226Z,20.00
2023-06-11T02:35:35.107Z,20.00
2023-06-11T02:38:01.992Z,19.90
2023-06-11T02:40:28.819Z,19.90
2023-06-11T02:42:55.679Z,19.90
2023-06-11T02:45:22.691Z,19.80
2023-06-11T02:47:49.558Z,19.80
2023-06-11T02:50:16.474Z,19.70
2023-06-11T02:52:43.328Z,19.70
2023-06-11T02:55:10.920Z,19.70
2023-06-11T02:57:38.022Z,19.60
2023-06-11T03:00:06.890Z,19.70
2023-06-11T03:02:33.861Z,19.70
2023-06-11T03:05:00.928Z,19.60
2023-06-11T03:07:27.742Z,19.50
2023-06-11T03:09:54.544Z,19.50
2023-06-11T03:12:22.112Z,19.50
2023-06-11T03:14:48.974Z,19.40
2023-06-11T03:17:15.864Z,19.30
2023-06-11T03:19:42.853Z,19.30
2023-06-11T03:22:10.338Z,19.30
2023-06-11T03:24:37.132Z,19.40
2023-06-11T03:27:04.346Z,19.40
2023-06-11T03:29:31.122Z,19.30
2023-06-11T03:31:58.354Z,19.30
2023-06-11T03:34:25.264Z,19.30
2023-06-11T03:36:52.013Z,19.20
2023-06-11T03:39:18.946Z,19.20
2023-06-11T03:41:45.847Z,19.20
2023-06-11T03:44:12.889Z,19.20
2023-06-11T03:46:39.717Z,19.10
2023-06-11T03:49:06.555Z,19.10
2023-06-11T03:51:33.417Z,19.10
2023-06-11T03:54:00.312Z,19.00
2023-06-11T03:56:27.773Z,19.00
2023-06-11T03:58:54.557Z,19.00
2023-06-11T04:01:21.915Z,19.00
2023-06-11T04:03:48.861Z,19.00
2023-06-11T04:06:17.187Z,19.00
2023-06-11T04:08:44.002Z,19.00
2023-06-11T04:11:10.994Z,19.00
2023-06-11T04:13:37.799Z,19.10
2023-06-11T04:16:07.055Z,19.10
2023-06-11T04:18:34.167Z,19.10
2023-06-11T04:21:01.134Z,19.20
2023-06-11T04:23:27.916Z,19.20
2023-06-11T04:25:56.431Z,19.20
2023-06-11T04:28:24.424Z,19.10
2023-06-11T04:30:51.243Z,19.20
2023-06-11T04:33:18.070Z,19.20
2023-06-11T04:35:44.927Z,19.20
2023-06-11T04:38:12.048Z,19.20
2023-06-11T04:40:39.074Z,19.30
2023-06-11T04:43:05.938Z,19.40
2023-06-11T04:45:35.233Z,19.50
2023-06-11T04:48:04.754Z,19.60
2023-06-11T04:50:32.902Z,19.60
2023-06-11T04:53:02.970Z,19.70
2023-06-11T04:55:33.420Z,19.80
2023-06-11T04:58:00.345Z,19.90
2023-06-11T05:00:27.558Z,19.80
2023-06-11T05:02:54.855Z,19.80
2023-06-11T05:05:21.801Z,19.90
2023-06-11T05:07:48.608Z,19.90
2023-06-11T05:10:16.693Z,19.80
2023-06-11T05:12:43.521Z,19.80
2023-06-11T05:15:11.081Z,19.90
2023-06-11T05:17:38.266Z,19.90
2023-06-11T05:20:06.530Z,19.90
2023-06-11T05:22:33.324Z,20.00
2023-06-11T05:25:00.114Z,20.00
2023-06-11T05:27:30.264Z,20.00
2023-06-11T05:29:58.211Z,20.00
2023-06-11T05:32:25.170Z,19.80
2023-06-11T05:34:52.192Z,19.80
2023-06-11T05:37:19.379Z,20.00
2023-06-11T05:39:46.749Z,20.00
2023-06-11T05:42:13.624Z,20.10
2023-06-11T05:44:40.414Z,20.20
2023-06-11T05:47:07.499Z,20.20
2023-06-11T05:49:34.429Z,20.30
2023-06-11T05:52:01.223Z,20.30
2023-06-11T05:54:28.099Z,20.20
2023-06-11T05:56:54.909Z,20.20
2023-06-11T05:59:21.764Z,20.20
2023-06-11T06:01:48.626Z,20.30
2023-06-11T06:04:17.194Z,20.30
2023-06-11T06:06:44.148Z,20.30
2023-06-11T06:09:11.264Z,20.40
2023-06-11T06:11:38.207Z,20.30
2023-06-11T06:14:05.078Z,20.30
2023-06-11T06:16:32.998Z,20.20
2023-06-11T06:19:00.142Z,20.30
2023-06-11T06:21:26.937Z,20.30
2023-06-11T06:23:53.938Z,20.30
2023-06-11T06:26:21.632Z,20.40
2023-06-11T06:28:48.450Z,20.50
2023-06-11T06:31:15.599Z,20.60
2023-06-11T06:33:42.471Z,20.60
2023-06-11T06:36:09.348Z,20.70
2023-06-11T06:38:37.512Z,20.70
2023-06-11T06:41:04.558Z,20.60
2023-06-11T06:43:31.459Z,20.60
2023-06-11T06:45:58.433Z,20.70
2023-06-11T06:48:26.335Z,20.70
2023-06-11T06:50:53.323Z,20.70
2023-06-11T06:53:20.115Z,20.80
2023-06-11T06:55:47.696Z,20.90
2023-06-11T06:58:15.759Z,21.00
2023-06-11T07:00:42.595Z,21.00
2023-06-11T07:03:10.655Z,21.00
2023-06-11T07:05:37.583Z,21.00
2023-06-11T07:08:04.545Z,21.00
2023-06-11T07:10:31.523Z,21.10
2023-06-11T07:13:00.638Z,21.10
2023-06-11T07:15:27.756Z,21.00
2023-06-11T07:17:54.560Z,21.10
2023-06-11T07:20:21.686Z,21.10
2023-06-11T07:22:48.558Z,21.10
2023-06-11T07:25:15.468Z,21.10
2023-06-11T07:27:44.103Z,21.20
2023-06-11T07:30:12.643Z,21.20
2023-06-11T07:32:39.609Z,21.30
2023-06-11T07:35:06.799Z,21.30
2023-06-11T07:37:33.659Z,21.30
2023-06-11T07:40:00.523Z,21.20
2023-06-11T07:42:27.353Z,21.20
2023-06-11T07:44:54.165Z,21.20
2023-06-11T07:47:21.079Z,21.20
2023-06-11T07:49:47.937Z,21.30
2023-06-11T07:52:14.773Z,21.30
2023-06-11T07:54:42.462Z,21.50
2023-06-11T07:57:11.200Z,21.50
2023-06-11T07:59:38.272Z,21.50
2023-06-11T08:02:06.155Z,21.60
2023-06-11T08:04:33.417Z,21.60
2023-06-11T08:07:00.363Z,21.60
2023-06-11T08:09:29.978Z,21.50
2023-06-11T08:11:57.843Z,21.50
2023-06-11T08:14:24.693Z,21.50
2023-06-11T08:16:51.605Z,21.60
2023-06-11T08:19:18.613Z,21.60
2023-06-11T08:21:47.988Z,21.70
2023-06-11T08:24:14.923Z,21.70
2023-06-11T08:26:41.800Z,21.70
2023-06-11T08:29:08.661Z,21.80
2023-06-11T08:31:35.609Z,21.90
2023-06-11T08:34:02.667Z,21.90
2023-06-11T08:36:29.514Z,21.90
2023-06-11T08:38:56.532Z,21.90
2023-06-11T08:41:24.746Z,21.90
2023-06-11T08:43:51.715Z,21.90
2023-06-11T08:46:23.146Z,22.00
2023-06-11T08:49:00.487Z,22.00
2023-06-11T08:51:38.276Z,21.90
2023-06-11T08:54:09.230Z,21.90
2023-06-11T08:56:36.885Z,22.00
2023-06-11T08:59:04.552Z,22.00
2023-06-11T09:01:32.807Z,22.10
2023-06-11T09:04:00.926Z,22.10
2023-06-11T09:06:29.335Z,22.20
2023-06-11T09:09:00.741Z,22.30
2023-06-11T09:11:33.658Z,22.20
2023-06-11T09:14:00.678Z,22.20
2023-06-11T09:16:27.605Z,22.20
2023-06-11T09:18:57.486Z,22.20
2023-06-11T09:21:26.130Z,22.30
2023-06-11T09:23:53.389Z,22.30
2023-06-11T09:26:20.306Z,22.40
2023-06-11T09:28:51.810Z,22.40
2023-06-11T09:31:20.109Z,22.40
2023-06-11T09:33:47.093Z,22.50
2023-06-11T09:36:17.359Z,22.60
2023-06-11T09:38:47.960Z,22.60
2023-06-11T09:41:16.533Z,22.60
2023-06-11T09:43:45.302Z,22.60
2023-06-11T09:46:15.649Z,22.50
2023-06-11T09:48:42.983Z,22.60
2023-06-11T09:51:10.967Z,22.60
2023-06-11T09:53:39.562Z,22.60
2023-06-11T09:56:11.562Z,22.60
2023-06-11T09:58:40.791Z,22.60
2023-06-11T10:01:08.471Z,22.70
2023-06-11T10:03:35.341Z,22.70
2023-06-11T10:06:08.102Z,22.80
2023-06-11T10:08:37.276Z,22.80
2023-06-11T10:11:05.336Z,22.80
2023-06-11T10:13:36.431Z,22.80
2023-06-11T10:16:05.301Z,22.80
2023-06-11T10:18:32.287Z,22.80
2023-06-11T10:21:04.461Z,22.80
2023-06-11T10:23:50.601Z,22.90
2023-06-11T10:26:18.002Z,23.00
2023-06-11T10:28:53.574Z,23.00
2023-06-11T10:31:30.909Z,23.00
2023-06-11T10:34:05.172Z,23.00
2023-06-11T10:36:41.838Z,23.10
2023-06-11T10:39:35.099Z,23.20
2023-06-11T10:42:03.554Z,23.20
2023-06-11T10:44:31.359Z,23.20
2023-06-11T10:47:01.900Z,23.20
2023-06-11T10:49:29.789Z,23.20
2023-06-11T10:51:57.302Z,23.30
2023-06-11T10:54:28.370Z,23.40
2023-06-11T10:57:00.056Z,23.40
2023-06-11T10:59:27.253Z,23.40
2023-06-11T11:01:54.737Z,23.40
2023-06-11T11:04:25.145Z,23.50
2023-06-11T11:07:09.817Z,23.50
2023-06-11T11:09:37.051Z,23.40
2023-06-11T11:12:05.013Z,23.40
2023-06-11T11:14:32.061Z,23.40
2023-06-11T11:17:02.491Z,23.40
2023-06-11T11:19:31.507Z,23.50
2023-06-11T11:21:58.431Z,23.60
2023-06-11T11:24:26.039Z,23.60
2023-06-11T11:26:53.078Z,23.70
2023-06-11T11:29:19.991Z,23.70
2023-06-11T11:31:47.829Z,23.80
2023-06-11T11:34:14.910Z,23.90
2023-06-11T11:36:46.808Z,24.00
2023-06-11T11:39:15.699Z,24.00
2023-06-11T11:42:02.993Z,24.00
2023-06-11T11:44:42.839Z,24.00
2023-06-11T11:47:11.346Z,23.80
2023-06-11T11:49:38.662Z,23.80
2023-06-11T11:52:08.907Z,23.80
2023-06-11T11:54:36.234Z,23.80
2023-06-11T11:57:03.813Z,23.70
2023-06-11T11:59:31.105Z,23.70
2023-06-11T12:01:59.314Z,23.70
2023-06-11T12:04:43.773Z,23.80
2023-06-11T12:07:16.297Z,23.90
2023-06-11T12:09:43.368Z,24.00
2023-06-11T12:12:11.429Z,24.00
2023-06-11T12:14:39.027Z,24.10
2023-06-11T12:17:12.015Z,24.10
2023-06-11T12:19:39.075Z,24.10
2023-06-11T12:22:06.675Z,24.20
2023-06-11T12:24:37.768Z,24.30
2023-06-11T12:27:09.416Z,24.30
2023-06-11T12:29:38.175Z,24.30
2023-06-11T12:32:05.489Z,24.20
2023-06-11T12:34:33.518Z,24.20
2023-06-11T12:37:01.263Z,24.20
2023-06-11T12:39:28.097Z,24.30
2023-06-11T12:41:54.957Z,24.30
2023-06-11T12:44:21.802Z,24.40
2023-06-11T12:46:48.670Z,24.50
2023-06-11T12:49:15.608Z,24.40
2023-06-11T12:51:47.041Z,24.40
2023-06-11T12:54:15.984Z,24.50
2023-06-11T12:59:09.820Z,24.50
2023-06-11T13:01:36.924Z,24.60
2023-06-11T13:04:03.948Z,24.70
2023-06-11T13:06:31.253Z,24.60
2023-06-11T13:08:58.528Z,24.60
2023-06-11T13:11:25.343Z,24.50
2023-06-11T13:13:53.313Z,24.50
2023-06-11T13:16:20.335Z,24.50
2023-06-11T13:18:47.278Z,24.40
2023-06-11T13:21:14.867Z,24.50
2023-06-11T13:23:44.022Z,24.40
2023-06-11T13:26:11.583Z,24.50
2023-06-11T13:28:40.467Z,24.60
2023-06-11T13:31:07.825Z,24.80
2023-06-11T13:33:34.753Z,24.90
2023-06-11T13:36:02.017Z,24.90
2023-06-11T13:38:28.975Z,25.00
2023-06-11T13:40:56.162Z,25.00
2023-06-11T13:43:23.212Z,24.90
2023-06-11T13:45:51.028Z,24.90
2023-06-11T13:48:19.928Z,24.80
2023-06-11T13:50:48.400Z,24.80
2023-06-11T13:53:16.268Z,24.80
2023-06-11T13:55:43.337Z,24.90
2023-06-11T13:58:10.125Z,25.00
2023-06-11T14:00:36.968Z,25.10
2023-06-11T14:03:05.088Z,25.20
2023-06-11T14:05:32.357Z,25.30
2023-06-11T14:07:59.804Z,25.30
2023-06-11T14:10:27.421Z,25.30
2023-06-11T14:12:54.299Z,25.30
2023-06-11T14:15:21.280Z,25.20
2023-06-11T14:17:48.414Z,25.10
2023-06-11T14:20:17.921Z,25.10
2023-06-11T14:22:45.616Z,25.10
2023-06-11T14:25:12.627Z,25.20
2023-06-11T14:27:39.473Z,25.20
2023-06-11T14:30:07.435Z,25.10
2023-06-11T14:32:34.373Z,25.10
2023-06-11T14:35:01.385Z,25.10
2023-06-11T14:37:28.700Z,25.10
2023-06-11T14:39:55.853Z,25.10
2023-06-11T14:42:23.105Z,25.20
2023-06-11T14:44:50.612Z,25.30
2023-06-11T14:47:17.845Z,25.40
2023-06-11T14:49:44.683Z,25.50
2023-06-11T14:52:13.943Z,25.60
2023-06-11T14:54:40.714Z,25.60
2023-06-11T14:57:19.403Z,25.60
2023-06-11T14:59:46.611Z,25.50
2023-06-11T15:02:17.100Z,25.30
2023-06-11T15:04:44.973Z,25.20
2023-06-11T15:07:29.400Z,25.10
2023-06-11T15:10:05.836Z,25.00
2023-06-11T15:12:32.902Z,24.90
2023-06-11T15:15:02.420Z,24.90
2023-06-11T15:17:36.826Z,24.90
2023-06-11T15:20:08.551Z,25.00
2023-06-11T15:22:38.566Z,25.00
2023-06-11T15:25:05.781Z,25.10
2023-06-11T15:27:32.633Z,25.20
2023-06-11T15:29:59.655Z,25.20
2023-06-11T15:32:26.561Z,25.30
2023-06-11T15:34:53.464Z,25.30
2023-06-11T15:37:20.390Z,25.20
2023-06-11T15:39:51.669Z,25.10
2023-06-11T15:42:19.461Z,25.10
2023-06-11T15:44:46.647Z,25.10
2023-06-11T15:47:13.640Z,25.10
2023-06-11T15:49:40.634Z,25.20
2023-06-11T15:52:08.773Z,25.20
2023-06-11T15:54:35.697Z,25.30
2023-06-11T15:57:02.850Z,25.30
2023-06-11T15:59:29.799Z,25.20
2023-06-11T16:01:56.783Z,25.20
2023-06-11T16:04:24.402Z,25.10
2023-06-11T16:06:51.469Z,25.10
2023-06-11T16:09:18.371Z,25.00
2023-06-11T16:11:45.481Z,24.90
2023-06-11T16:14:15.970Z,24.80
2023-06-11T16:16:43.637Z,24.80
2023-06-11T16:19:10.581Z,24.80
2023-06-11T16:21:38.161Z,24.80
2023-06-11T16:24:06.126Z,24.80
2023-06-11T16:26:33.322Z,24.90
2023-06-11T16:29:00.518Z,25.00
2023-06-11T16:31:27.454Z,25.00
2023-06-11T16:33:58.931Z,25.10
2023-06-11T16:36:29.086Z,25.10
2023-06-11T16:39:01.293Z,25.10
2023-06-11T16:41:33.330Z,25.10
2023-06-11T16:44:00.527Z,25.10
2023-06-11T16:46:27.551Z,25.10
2023-06-11T16:48:54.692Z,25.00
2023-06-11T16:51:21.671Z,25.00
2023-06-11T16:53:48.683Z,24.90
2023-06-11T16:56:15.668Z,24.90
2023-06-11T16:58:42.498Z,24.80
2023-06-11T17:01:09.466Z,24.80
2023-06-11T17:03:36.580Z,24.80
2023-06-11T17:06:03.758Z,24.80
2023-06-11T17:08:31.149Z,24.80
2023-06-11T17:10:58.210Z,24.80
2023-06-11T17:13:25.457Z,24.80
2023-06-11T17:15:52.297Z,24.80
2023-06-11T17:18:19.136Z,24.70
2023-06-11T17:20:47.437Z,24.70
2023-06-11T17:23:16.868Z,24.60
2023-06-11T17:25:43.997Z,24.60
2023-06-11T17:28:14.285Z,24.60
2023-06-11T17:30:41.096Z,24.60
2023-06-11T17:33:07.956Z,24.70
2023-06-11T17:35:34.848Z,24.70
2023-06-11T17:38:01.802Z,24.60
2023-06-11T17:40:29.025Z,24.60
2023-06-11T17:42:59.089Z,24.60
2023-06-11T17:45:29.736Z,24.60
2023-06-11T17:47:57.300Z,24.60
2023-06-11T17:50:25.044Z,24.60
2023-06-11T17:52:52.280Z,24.60
2023-06-11T17:55:19.124Z,24.50
2023-06-11T17:57:48.107Z,24.50
2023-06-11T18:00:16.941Z,24.50
2023-06-11T18:02:45.451Z,24.40
2023-06-11T18:05:13.162Z,24.40
2023-06-11T18:07:46.561Z,24.40
2023-06-11T18:10:15.787Z,24.40
2023-06-11T18:12:43.632Z,24.30
2023-06-11T18:15:30.499Z,24.30
2023-06-11T18:17:59.327Z,24.30
2023-06-11T18:20:27.947Z,24.20
2023-06-11T18:22:55.149Z,24.20
2023-06-11T18:25:22.450Z,24.20
2023-06-11T18:27:49.560Z,24.20
2023-06-11T18:30:16.484Z,24.10
2023-06-11T18:32:43.446Z,24.10
2023-06-11T18:35:11.249Z,24.10
2023-06-11T18:37:38.739Z,24.10
2023-06-11T18:40:06.734Z,24.10
2023-06-11T18:42:33.637Z,24.10
2023-06-11T18:45:00.800Z,24.00
2023-06-11T18:47:27.672Z,24.00
2023-06-11T18:49:54.505Z,24.00
2023-06-11T18:52:21.449Z,24.00
2023-06-11T18:54:48.391Z,24.00
2023-06-11T18:57:19.553Z,24.00
2023-06-11T18:59:50.428Z,23.90
2023-06-11T19:02:17.529Z,23.90
2023-06-11T19:04:44.605Z,23.80
2023-06-11T19:07:11.681Z,23.80
2023-06-11T19:09:39.149Z,23.70
2023-06-11T19:12:07.468Z,23.70
2023-06-11T19:14:34.592Z,23.60
2023-06-11T19:17:01.518Z,23.60
2023-06-11T19:19:28.531Z,23.60
2023-06-11T19:21:55.947Z,23.50
2023-06-11T19:24:22.853Z,23.40
2023-06-11T19:26:50.075Z,23.40
2023-06-11T19:29:16.976Z,23.30
2023-06-11T19:31:43.860Z,23.30
2023-06-11T19:34:10.749Z,23.30
2023-06-11T19:36:38.485Z,23.20
2023-06-11T19:39:06.079Z,23.20
2023-06-11T19:41:32.911Z,23.20
2023-06-11T19:43:59.971Z,23.20
2023-06-11T19:46:35.705Z,23.20
2023-06-11T19:49:03.494Z,23.10
2023-06-11T19:51:30.493Z,23.10
2023-06-11T19:54:03.071Z,23.10
2023-06-11T19:56:35.598Z,23.00
2023-06-11T19:59:05.194Z,23.00
2023-06-11T20:01:32.638Z,22.90
2023-06-11T20:04:08.467Z,22.90
2023-06-11T20:06:35.898Z,22.80
2023-06-11T20:09:05.108Z,22.80
2023-06-11T20:11:32.305Z,22.70
2023-06-11T20:13:59.353Z,22.70
2023-06-11T20:16:26.321Z,22.70
2023-06-11T20:18:53.756Z,22.60
2023-06-11T20:21:20.634Z,22.60
2023-06-11T20:23:47.456Z,22.60
2023-06-11T20:26:14.298Z,22.50
2023-06-11T20:28:41.130Z,22.50
2023-06-11T20:31:09.034Z,22.50
2023-06-11T20:33:36.341Z,22.40
2023-06-11T20:36:03.927Z,22.40
2023-06-11T20:38:30.960Z,22.30
2023-06-11T20:40:58.591Z,22.30
2023-06-11T20:43:25.478Z,22.20
2023-06-11T20:48:22.469Z,22.20
2023-06-11T20:50:49.782Z,22.10
2023-06-11T20:53:31.779Z,22.00
2023-06-11T20:56:00.846Z,22.00
2023-06-11T20:58:27.762Z,22.00
2023-06-11T21:00:54.738Z,21.90
2023-06-11T21:03:22.005Z,21.90
2023-06-11T21:05:51.299Z,21.80
2023-06-11T21:08:21.506Z,21.80
2023-06-11T21:10:48.600Z,21.80
2023-06-11T21:13:15.714Z,21.70
2023-06-11T21:15:42.919Z,21.70
2023-06-11T21:18:09.903Z,21.70
2023-06-11T21:20:39.174Z,21.60
2023-06-11T21:23:06.136Z,21.60
2023-06-11T21:25:33.106Z,21.60
2023-06-11T21:28:03.467Z,21.60
2023-06-11T21:30:33.639Z,21.50
2023-06-11T21:33:01.951Z,21.50
2023-06-11T21:35:28.892Z,21.40
2023-06-11T21:37:55.766Z,21.40
2023-06-11T21:40:22.743Z,21.40
2023-06-11T21:42:49.606Z,21.30
2023-06-11T21:45:16.661Z,21.30
2023-06-11T21:47:43.547Z,21.30
2023-06-11T22:10:11.582Z,20.90
2023-06-11T22:12:42.310Z,20.80
2023-06-11T22:15:11.949Z,20.80
2023-06-11T22:17:40.565Z,20.80
2023-06-11T22:20:09.507Z,20.80
2023-06-11T22:22:38.334Z,20.80
2023-06-11T22:25:06.172Z,20.80
2023-06-11T22:27:33.570Z,20.70
2023-06-11T22:30:00.475Z,20.70
2023-06-11T22:32:27.742Z,20.70
2023-06-11T22:34:54.677Z,20.60
2023-06-11T22:37:21.583Z,20.60
2023-06-11T22:39:48.672Z,20.50
2023-06-11T22:42:15.536Z,20.50
2023-06-11T22:44:42.356Z,20.50
2023-06-11T22:47:09.535Z,20.50
2023-06-11T22:49:36.439Z,20.50
2023-06-11T22:52:03.445Z,20.40
2023-06-11T22:54:30.353Z,20.40
2023-06-11T22:56:57.331Z,20.30
2023-06-11T22:59:24.154Z,20.30
2023-06-11T23:01:51.410Z,20.30
2023-06-11T23:04:20.876Z,20.30
2023-06-11T23:06:48.646Z,20.30
2023-06-11T23:09:16.309Z,20.30
2023-06-11T23:11:43.620Z,20.20
2023-06-11T23:14:11.554Z,20.20
2023-06-11T23:16:38.618Z,20.20
2023-06-11T23:19:06.057Z,20.20
2023-06-11T23:21:32.873Z,20.10
2023-06-11T23:24:02.058Z,20.10
2023-06-11T23:26:29.272Z,20.00
2023-06-11T23:28:57.189Z,20.00
2023-06-11T23:31:24.243Z,20.00
2023-06-11T23:33:51.134Z,20.00
2023-06-11T23:36:19.177Z,20.00
2023-06-11T23:38:46.898Z,20.00
2023-06-11T23:41:13.741Z,20.00
2023-06-11T23:43:40.934Z,20.00
2023-06-11T23:46:12.396Z,20.00
2023-06-11T23:48:39.949Z,20.00
2023-06-11T23:51:10.428Z,20.00
2023-06-11T23:53:37.378Z,19.90
2023-06-11T23:56:04.552Z,19.90
2023-06-11T23:58:31.432Z,19.90
